To NAV CANADA Home Page Login to a new session Search on AWWS site Feedback and Comments Disclaimer Vers la page française équivalente Tips FAQ What's new on the site To the Forecasts and Observations / NOTAM section To "File a Flight Plan" website Publications and other links Update of the User's profile FIC Telephone Numbers My Weather Data Folder Route Weather Data Regional Weather Data Local Weather Data To the Forecasts and Observations / NOTAM section
Request Generated 04/25/2014 at 06:40:59 UTC . Weather information available at that time is displayed.

METAR/TAF

ST. ANTHONY/NL    (show WxCam)

SPECI CYAY 250636Z AUTO 03016G24KT 1/2SM -FZRA FG VV003 M00/M00 A2984
RMK ICG INTMT MAX WND 02023KT AT 0613Z SLP105=
SPECI CYAY 250608Z AUTO 02022G28KT 1/2SM -FZRA FG VV002 M00/M00 A2984
RMK ICG MAX WND 02023KT AT 0607Z SLP105=
METAR CYAY 250600Z AUTO 02023G29KT 1/2SM -FZRA FG VV003 M00/M00 A2984
RMK ICG MAX WND 02025KT AT 0505Z SLP106=
SPECI CYAY 250536Z AUTO 02023G29KT 3/4SM -FZRA BR OVC003 M00/M00
A2984 RMK ICG MAX WND 02025KT AT 0505Z SLP107=
METAR CYAY 250500Z AUTO 02022G30KT 1SM -FZRA BR OVC003 M00/M01 A2985
RMK ICG MAX WND 02025KT AT 0431Z SLP109=
SPECI CYAY 250458Z AUTO 02021G30KT 1SM -FZRA BR OVC003 M00/M01 A2985
RMK ICG MAX WND 02025KT AT 0431Z SLP111=
SPECI CYAY 250434Z AUTO 02025G31KT 3/4SM -FZRA BR OVC004 M00/M01
A2986 RMK ICG MAX WND 02025KT AT 0431Z SLP115=
SPECI CYAY 250433Z AUTO 02023G31KT 1SM -FZRA BR OVC004 M00/M01 A2986
RMK ICG MAX WND 02025KT AT 0431Z SLP115=
METAR CYAY 250400Z AUTO 02023G29KT 1SM BR OVC004 M00/M01 A2988 RMK
ICG MAX WND 02024KT AT 0357Z PRESFR SLP121=

TAF CYAY 250138Z 2502/2514 02017G27KT 3/4SM -SN BR OVC003 TEMPO
2502/2508 4SM -FZDZ BR OVC004
FM250800 04020G30KT 3/4SM -DZ BR OVC003 TEMPO 2508/2514 2SM -RA
BR OVC004 PROB30 2508/2512 1SM -FZDZ BR
RMK FCST BASED ON AUTO OBS. NXT FCST BY 250800Z=
Your time UTC time
Weather data provided by Environment Canada and NAV CANADA